sensor_id;sensor_type;location;lat;lon;timestamp;P1;durP1;ratioP1;P2;durP2;ratioP2
10653;SDS011;5375;51.250;6.776;2023-03-13T00:01:31;6.97;;;2.47;;
10653;SDS011;5375;51.250;6.776;2023-03-13T00:03:57;5.87;;;2.00;;
10653;SDS011;5375;51.250;6.776;2023-03-13T00:06:23;5.37;;;2.10;;
10653;SDS011;5375;51.250;6.776;2023-03-13T00:08:50;7.20;;;2.50;;
10653;SDS011;5375;51.250;6.776;2023-03-13T00:11:16;7.43;;;2.60;;
10653;SDS011;5375;51.250;6.776;2023-03-13T00:13:42;9.27;;;2.43;;
10653;SDS011;5375;51.250;6.776;2023-03-13T00:16:12;6.10;;;2.40;;
10653;SDS011;5375;51.250;6.776;2023-03-13T00:18:43;9.57;;;2.40;;
10653;SDS011;5375;51.250;6.776;2023-03-13T00:21:10;6.97;;;2.60;;
10653;SDS011;5375;51.250;6.776;2023-03-13T00:23:36;7.30;;;2.50;;
10653;SDS011;5375;51.250;6.776;2023-03-13T00:26:04;7.50;;;2.30;;
10653;SDS011;5375;51.250;6.776;2023-03-13T00:28:34;8.07;;;2.53;;
10653;SDS011;5375;51.250;6.776;2023-03-13T00:33:37;6.93;;;2.40;;
10653;SDS011;5375;51.250;6.776;2023-03-13T00:36:05;5.60;;;2.20;;
10653;SDS011;5375;51.250;6.776;2023-03-13T00:38:42;5.97;;;2.20;;
10653;SDS011;5375;51.250;6.776;2023-03-13T00:41:09;6.40;;;2.23;;
10653;SDS011;5375;51.250;6.776;2023-03-13T00:43:46;6.93;;;2.43;;
10653;SDS011;5375;51.250;6.776;2023-03-13T00:46:13;9.63;;;2.30;;
10653;SDS011;5375;51.250;6.776;2023-03-13T00:48:40;6.10;;;2.00;;
10653;SDS011;5375;51.250;6.776;2023-03-13T00:51:06;6.20;;;2.17;;
10653;SDS011;5375;51.250;6.776;2023-03-13T00:53:32;5.77;;;2.23;;
10653;SDS011;5375;51.250;6.776;2023-03-13T00:58:26;5.50;;;1.97;;
10653;SDS011;5375;51.250;6.776;2023-03-13T01:00:53;6.10;;;2.07;;
10653;SDS011;5375;51.250;6.776;2023-03-13T01:03:19;5.87;;;1.90;;
10653;SDS011;5375;51.250;6.776;2023-03-13T01:05:56;6.00;;;1.93;;
10653;SDS011;5375;51.250;6.776;2023-03-13T01:08:22;7.40;;;2.10;;
10653;SDS011;5375;51.250;6.776;2023-03-13T01:10:48;8.07;;;2.60;;
10653;SDS011;5375;51.250;6.776;2023-03-13T01:13:14;6.53;;;2.00;;
10653;SDS011;5375;51.250;6.776;2023-03-13T01:15:39;6.57;;;2.27;;
10653;SDS011;5375;51.250;6.776;2023-03-13T01:18:05;6.60;;;2.20;;
10653;SDS011;5375;51.250;6.776;2023-03-13T01:20:30;7.23;;;2.33;;
10653;SDS011;5375;51.250;6.776;2023-03-13T01:22:56;6.47;;;1.87;;
10653;SDS011;5375;51.250;6.776;2023-03-13T01:25:22;7.43;;;2.10;;
10653;SDS011;5375;51.250;6.776;2023-03-13T01:27:47;5.93;;;2.40;;
10653;SDS011;5375;51.250;6.776;2023-03-13T01:30:13;7.07;;;2.03;;
10653;SDS011;5375;51.250;6.776;2023-03-13T01:32:39;6.13;;;1.97;;
10653;SDS011;5375;51.250;6.776;2023-03-13T01:35:05;7.17;;;2.30;;
10653;SDS011;5375;51.250;6.776;2023-03-13T01:37:31;7.03;;;2.00;;
10653;SDS011;5375;51.250;6.776;2023-03-13T01:39:57;6.23;;;2.17;;
10653;SDS011;5375;51.250;6.776;2023-03-13T01:42:22;6.23;;;2.10;;
10653;SDS011;5375;51.250;6.776;2023-03-13T01:44:50;6.03;;;1.80;;
10653;SDS011;5375;51.250;6.776;2023-03-13T01:47:16;6.27;;;2.10;;
10653;SDS011;5375;51.250;6.776;2023-03-13T01:49:42;4.13;;;1.60;;
10653;SDS011;5375;51.250;6.776;2023-03-13T01:52:12;7.23;;;2.23;;
10653;SDS011;5375;51.250;6.776;2023-03-13T01:54:49;4.93;;;2.10;;
10653;SDS011;5375;51.250;6.776;2023-03-13T01:57:36;7.70;;;2.20;;
10653;SDS011;5375;51.250;6.776;2023-03-13T02:02:35;5.90;;;1.90;;
10653;SDS011;5375;51.250;6.776;2023-03-13T02:05:02;5.87;;;2.10;;
10653;SDS011;5375;51.250;6.776;2023-03-13T02:07:35;5.97;;;1.90;;
10653;SDS011;5375;51.250;6.776;2023-03-13T02:10:05;8.60;;;2.20;;
10653;SDS011;5375;51.250;6.776;2023-03-13T02:12:33;4.67;;;1.90;;
10653;SDS011;5375;51.250;6.776;2023-03-13T02:15:03;4.53;;;2.10;;
10653;SDS011;5375;51.250;6.776;2023-03-13T02:17:32;8.60;;;1.93;;
10653;SDS011;5375;51.250;6.776;2023-03-13T02:20:00;7.57;;;1.70;;
10653;SDS011;5375;51.250;6.776;2023-03-13T02:27:36;5.10;;;2.10;;
10653;SDS011;5375;51.250;6.776;2023-03-13T02:30:02;7.13;;;2.10;;
10653;SDS011;5375;51.250;6.776;2023-03-13T02:32:29;5.07;;;2.00;;
10653;SDS011;5375;51.250;6.776;2023-03-13T02:34:57;4.53;;;1.73;;
10653;SDS011;5375;51.250;6.776;2023-03-13T02:37:28;5.10;;;1.60;;
10653;SDS011;5375;51.250;6.776;2023-03-13T02:39:55;5.60;;;2.10;;
10653;SDS011;5375;51.250;6.776;2023-03-13T02:42:25;4.13;;;1.77;;
10653;SDS011;5375;51.250;6.776;2023-03-13T02:44:52;5.47;;;1.67;;
10653;SDS011;5375;51.250;6.776;2023-03-13T02:47:18;6.27;;;2.00;;
10653;SDS011;5375;51.250;6.776;2023-03-13T02:49:46;7.27;;;2.10;;
10653;SDS011;5375;51.250;6.776;2023-03-13T02:52:34;5.93;;;2.00;;
10653;SDS011;5375;51.250;6.776;2023-03-13T02:55:06;5.97;;;2.20;;
10653;SDS011;5375;51.250;6.776;2023-03-13T02:57:48;6.10;;;2.20;;
10653;SDS011;5375;51.250;6.776;2023-03-13T03:00:14;4.43;;;1.90;;
10653;SDS011;5375;51.250;6.776;2023-03-13T03:02:41;4.43;;;1.63;;
10653;SDS011;5375;51.250;6.776;2023-03-13T03:05:07;3.73;;;1.43;;
10653;SDS011;5375;51.250;6.776;2023-03-13T03:07:34;5.33;;;1.50;;
10653;SDS011;5375;51.250;6.776;2023-03-13T03:10:00;3.90;;;1.53;;
10653;SDS011;5375;51.250;6.776;2023-03-13T03:12:26;5.20;;;1.70;;
10653;SDS011;5375;51.250;6.776;2023-03-13T03:14:51;4.77;;;1.63;;
10653;SDS011;5375;51.250;6.776;2023-03-13T03:17:17;6.43;;;1.90;;
10653;SDS011;5375;51.250;6.776;2023-03-13T03:19:43;5.03;;;1.93;;
10653;SDS011;5375;51.250;6.776;2023-03-13T03:22:08;2.97;;;1.40;;
10653;SDS011;5375;51.250;6.776;2023-03-13T03:24:34;5.80;;;1.90;;
10653;SDS011;5375;51.250;6.776;2023-03-13T03:27:00;4.93;;;1.80;;
10653;SDS011;5375;51.250;6.776;2023-03-13T03:29:25;4.73;;;1.40;;
10653;SDS011;5375;51.250;6.776;2023-03-13T03:31:51;3.77;;;1.57;;
10653;SDS011;5375;51.250;6.776;2023-03-13T03:34:17;5.53;;;1.93;;
10653;SDS011;5375;51.250;6.776;2023-03-13T03:36:43;4.37;;;1.60;;
10653;SDS011;5375;51.250;6.776;2023-03-13T03:39:08;3.13;;;1.33;;
10653;SDS011;5375;51.250;6.776;2023-03-13T03:41:35;4.70;;;1.50;;
10653;SDS011;5375;51.250;6.776;2023-03-13T03:44:01;4.83;;;1.60;;
10653;SDS011;5375;51.250;6.776;2023-03-13T03:46:27;5.57;;;1.73;;
10653;SDS011;5375;51.250;6.776;2023-03-13T03:48:53;3.93;;;1.37;;
10653;SDS011;5375;51.250;6.776;2023-03-13T03:51:19;9.53;;;1.40;;
10653;SDS011;5375;51.250;6.776;2023-03-13T03:53:45;4.27;;;1.47;;
10653;SDS011;5375;51.250;6.776;2023-03-13T03:56:10;6.97;;;1.87;;
10653;SDS011;5375;51.250;6.776;2023-03-13T03:58:36;14.27;;;1.53;;
10653;SDS011;5375;51.250;6.776;2023-03-13T04:01:02;6.17;;;1.40;;
10653;SDS011;5375;51.250;6.776;2023-03-13T04:03:28;7.10;;;1.30;;
10653;SDS011;5375;51.250;6.776;2023-03-13T04:05:54;4.23;;;1.20;;
10653;SDS011;5375;51.250;6.776;2023-03-13T04:08:20;2.93;;;1.37;;
10653;SDS011;5375;51.250;6.776;2023-03-13T04:10:46;4.97;;;1.47;;
10653;SDS011;5375;51.250;6.776;2023-03-13T04:13:12;3.03;;;1.00;;
10653;SDS011;5375;51.250;6.776;2023-03-13T04:15:38;3.00;;;1.30;;
10653;SDS011;5375;51.250;6.776;2023-03-13T04:18:04;4.37;;;1.27;;
10653;SDS011;5375;51.250;6.776;2023-03-13T04:20:30;4.43;;;1.37;;
10653;SDS011;5375;51.250;6.776;2023-03-13T04:22:56;1.50;;;1.00;;
10653;SDS011;5375;51.250;6.776;2023-03-13T04:25:21;2.97;;;1.20;;
10653;SDS011;5375;51.250;6.776;2023-03-13T04:27:47;3.67;;;1.17;;
10653;SDS011;5375;51.250;6.776;2023-03-13T04:30:13;2.37;;;1.00;;
10653;SDS011;5375;51.250;6.776;2023-03-13T04:32:39;2.20;;;0.90;;
10653;SDS011;5375;51.250;6.776;2023-03-13T04:35:05;3.40;;;1.17;;
10653;SDS011;5375;51.250;6.776;2023-03-13T04:37:30;2.33;;;0.77;;
10653;SDS011;5375;51.250;6.776;2023-03-13T04:39:56;2.90;;;1.00;;
10653;SDS011;5375;51.250;6.776;2023-03-13T04:42:22;2.10;;;1.03;;
10653;SDS011;5375;51.250;6.776;2023-03-13T04:44:47;3.43;;;1.00;;
10653;SDS011;5375;51.250;6.776;2023-03-13T04:47:13;1.73;;;0.90;;
10653;SDS011;5375;51.250;6.776;2023-03-13T04:49:39;1.87;;;1.20;;
10653;SDS011;5375;51.250;6.776;2023-03-13T04:52:04;1.87;;;0.90;;
10653;SDS011;5375;51.250;6.776;2023-03-13T04:54:30;2.43;;;1.10;;
10653;SDS011;5375;51.250;6.776;2023-03-13T04:56:56;8.00;;;1.00;;
10653;SDS011;5375;51.250;6.776;2023-03-13T04:59:21;3.73;;;1.10;;
10653;SDS011;5375;51.250;6.776;2023-03-13T05:01:47;3.70;;;1.07;;
10653;SDS011;5375;51.250;6.776;2023-03-13T05:04:13;2.63;;;0.70;;
10653;SDS011;5375;51.250;6.776;2023-03-13T05:06:38;2.33;;;0.97;;
10653;SDS011;5375;51.250;6.776;2023-03-13T05:09:04;2.30;;;1.00;;
10653;SDS011;5375;51.250;6.776;2023-03-13T05:11:30;1.90;;;0.90;;
10653;SDS011;5375;51.250;6.776;2023-03-13T05:13:55;2.27;;;1.00;;
10653;SDS011;5375;51.250;6.776;2023-03-13T05:16:21;2.27;;;0.83;;
10653;SDS011;5375;51.250;6.776;2023-03-13T05:18:47;1.97;;;1.00;;
10653;SDS011;5375;51.250;6.776;2023-03-13T05:21:12;14.83;;;1.20;;
10653;SDS011;5375;51.250;6.776;2023-03-13T05:23:38;3.70;;;0.93;;
10653;SDS011;5375;51.250;6.776;2023-03-13T05:26:03;5.47;;;1.00;;
10653;SDS011;5375;51.250;6.776;2023-03-13T05:28:29;2.03;;;0.53;;
10653;SDS011;5375;51.250;6.776;2023-03-13T05:30:55;1.00;;;0.60;;
10653;SDS011;5375;51.250;6.776;2023-03-13T05:33:20;2.07;;;0.70;;
10653;SDS011;5375;51.250;6.776;2023-03-13T05:35:46;1.70;;;0.77;;
10653;SDS011;5375;51.250;6.776;2023-03-13T05:38:12;2.67;;;0.90;;
10653;SDS011;5375;51.250;6.776;2023-03-13T05:40:38;2.97;;;0.70;;
10653;SDS011;5375;51.250;6.776;2023-03-13T05:43:06;2.73;;;0.77;;
10653;SDS011;5375;51.250;6.776;2023-03-13T05:45:32;1.70;;;0.77;;
10653;SDS011;5375;51.250;6.776;2023-03-13T05:47:57;2.20;;;0.97;;
10653;SDS011;5375;51.250;6.776;2023-03-13T05:50:23;2.23;;;0.70;;
10653;SDS011;5375;51.250;6.776;2023-03-13T05:52:49;1.47;;;0.67;;
10653;SDS011;5375;51.250;6.776;2023-03-13T05:55:17;2.43;;;0.70;;
10653;SDS011;5375;51.250;6.776;2023-03-13T05:57:44;2.47;;;0.80;;
10653;SDS011;5375;51.250;6.776;2023-03-13T06:00:11;2.20;;;0.60;;
10653;SDS011;5375;51.250;6.776;2023-03-13T06:02:38;2.23;;;0.90;;
10653;SDS011;5375;51.250;6.776;2023-03-13T06:05:03;1.07;;;0.53;;
10653;SDS011;5375;51.250;6.776;2023-03-13T06:07:29;1.43;;;0.70;;
10653;SDS011;5375;51.250;6.776;2023-03-13T06:09:55;2.47;;;0.60;;
10653;SDS011;5375;51.250;6.776;2023-03-13T06:12:20;5.40;;;0.73;;
10653;SDS011;5375;51.250;6.776;2023-03-13T06:14:46;1.43;;;0.60;;
10653;SDS011;5375;51.250;6.776;2023-03-13T06:17:11;1.10;;;0.70;;
10653;SDS011;5375;51.250;6.776;2023-03-13T06:19:40;1.00;;;0.63;;
10653;SDS011;5375;51.250;6.776;2023-03-13T06:22:08;1.27;;;0.80;;
10653;SDS011;5375;51.250;6.776;2023-03-13T06:24:34;1.57;;;0.70;;
10653;SDS011;5375;51.250;6.776;2023-03-13T06:27:00;4.17;;;0.80;;
10653;SDS011;5375;51.250;6.776;2023-03-13T06:29:25;1.70;;;0.77;;
10653;SDS011;5375;51.250;6.776;2023-03-13T06:31:51;2.60;;;0.80;;
10653;SDS011;5375;51.250;6.776;2023-03-13T06:34:17;1.37;;;0.70;;
10653;SDS011;5375;51.250;6.776;2023-03-13T06:36:43;1.43;;;0.93;;
10653;SDS011;5375;51.250;6.776;2023-03-13T06:39:09;1.03;;;0.70;;
10653;SDS011;5375;51.250;6.776;2023-03-13T06:41:35;3.53;;;0.73;;
10653;SDS011;5375;51.250;6.776;2023-03-13T06:44:01;1.60;;;0.73;;
10653;SDS011;5375;51.250;6.776;2023-03-13T06:46:27;3.90;;;0.80;;
10653;SDS011;5375;51.250;6.776;2023-03-13T06:48:52;1.93;;;0.73;;
10653;SDS011;5375;51.250;6.776;2023-03-13T06:51:21;4.07;;;0.70;;
10653;SDS011;5375;51.250;6.776;2023-03-13T06:53:47;2.37;;;0.83;;
10653;SDS011;5375;51.250;6.776;2023-03-13T06:56:13;4.53;;;0.70;;
10653;SDS011;5375;51.250;6.776;2023-03-13T06:58:39;9.83;;;0.93;;
10653;SDS011;5375;51.250;6.776;2023-03-13T07:01:11;2.60;;;0.77;;
10653;SDS011;5375;51.250;6.776;2023-03-13T07:03:38;3.07;;;0.60;;
10653;SDS011;5375;51.250;6.776;2023-03-13T07:06:05;4.50;;;0.90;;
10653;SDS011;5375;51.250;6.776;2023-03-13T07:08:32;3.50;;;0.80;;
10653;SDS011;5375;51.250;6.776;2023-03-13T07:11:00;2.47;;;0.60;;
10653;SDS011;5375;51.250;6.776;2023-03-13T07:13:26;3.67;;;0.80;;
10653;SDS011;5375;51.250;6.776;2023-03-13T07:15:52;3.73;;;0.90;;
10653;SDS011;5375;51.250;6.776;2023-03-13T07:18:18;2.37;;;0.80;;
10653;SDS011;5375;51.250;6.776;2023-03-13T07:20:50;3.30;;;0.80;;
10653;SDS011;5375;51.250;6.776;2023-03-13T07:23:20;5.23;;;0.93;;
10653;SDS011;5375;51.250;6.776;2023-03-13T07:25:56;3.90;;;0.90;;
10653;SDS011;5375;51.250;6.776;2023-03-13T07:28:24;2.33;;;0.80;;
10653;SDS011;5375;51.250;6.776;2023-03-13T07:30:51;1.77;;;0.67;;
10653;SDS011;5375;51.250;6.776;2023-03-13T07:33:17;2.33;;;0.77;;
10653;SDS011;5375;51.250;6.776;2023-03-13T07:35:46;5.10;;;1.03;;
10653;SDS011;5375;51.250;6.776;2023-03-13T07:38:13;2.10;;;0.80;;
10653;SDS011;5375;51.250;6.776;2023-03-13T07:40:38;3.50;;;0.70;;
10653;SDS011;5375;51.250;6.776;2023-03-13T07:43:04;1.23;;;0.67;;
10653;SDS011;5375;51.250;6.776;2023-03-13T07:45:29;2.40;;;0.83;;
10653;SDS011;5375;51.250;6.776;2023-03-13T07:47:55;1.43;;;0.60;;
10653;SDS011;5375;51.250;6.776;2023-03-13T07:50:21;3.70;;;0.70;;
10653;SDS011;5375;51.250;6.776;2023-03-13T07:52:46;1.47;;;0.70;;
10653;SDS011;5375;51.250;6.776;2023-03-13T07:55:14;2.47;;;0.67;;
10653;SDS011;5375;51.250;6.776;2023-03-13T07:57:40;3.03;;;0.83;;
10653;SDS011;5375;51.250;6.776;2023-03-13T08:00:05;4.17;;;1.00;;
10653;SDS011;5375;51.250;6.776;2023-03-13T08:02:34;4.63;;;0.60;;
10653;SDS011;5375;51.250;6.776;2023-03-13T08:05:00;1.50;;;0.80;;
10653;SDS011;5375;51.250;6.776;2023-03-13T08:07:25;1.57;;;0.50;;
10653;SDS011;5375;51.250;6.776;2023-03-13T08:09:51;2.53;;;0.70;;
10653;SDS011;5375;51.250;6.776;2023-03-13T08:12:17;2.77;;;0.70;;
10653;SDS011;5375;51.250;6.776;2023-03-13T08:14:42;4.27;;;0.70;;
10653;SDS011;5375;51.250;6.776;2023-03-13T08:17:10;1.00;;;0.50;;
10653;SDS011;5375;51.250;6.776;2023-03-13T08:19:36;1.47;;;0.50;;
10653;SDS011;5375;51.250;6.776;2023-03-13T08:22:02;2.77;;;0.53;;
10653;SDS011;5375;51.250;6.776;2023-03-13T08:24:28;3.40;;;0.90;;
10653;SDS011;5375;51.250;6.776;2023-03-13T08:26:53;1.03;;;0.57;;
10653;SDS011;5375;51.250;6.776;2023-03-13T08:29:19;1.23;;;0.60;;
10653;SDS011;5375;51.250;6.776;2023-03-13T08:31:45;2.70;;;0.90;;
10653;SDS011;5375;51.250;6.776;2023-03-13T08:34:13;1.13;;;0.80;;
10653;SDS011;5375;51.250;6.776;2023-03-13T08:36:39;0.80;;;0.60;;
10653;SDS011;5375;51.250;6.776;2023-03-13T08:39:12;1.33;;;0.60;;
10653;SDS011;5375;51.250;6.776;2023-03-13T08:41:39;1.30;;;0.70;;
10653;SDS011;5375;51.250;6.776;2023-03-13T08:44:05;1.97;;;0.57;;
10653;SDS011;5375;51.250;6.776;2023-03-13T08:46:32;0.83;;;0.60;;
10653;SDS011;5375;51.250;6.776;2023-03-13T08:49:00;2.93;;;0.70;;
10653;SDS011;5375;51.250;6.776;2023-03-13T08:51:27;1.60;;;0.77;;
10653;SDS011;5375;51.250;6.776;2023-03-13T08:53:53;1.20;;;0.60;;
10653;SDS011;5375;51.250;6.776;2023-03-13T08:56:21;1.43;;;0.70;;
10653;SDS011;5375;51.250;6.776;2023-03-13T08:58:52;1.40;;;0.40;;
10653;SDS011;5375;51.250;6.776;2023-03-13T09:01:19;1.63;;;0.80;;
10653;SDS011;5375;51.250;6.776;2023-03-13T09:03:46;1.93;;;0.77;;
10653;SDS011;5375;51.250;6.776;2023-03-13T09:06:12;0.83;;;0.60;;
10653;SDS011;5375;51.250;6.776;2023-03-13T09:08:38;0.90;;;0.70;;
10653;SDS011;5375;51.250;6.776;2023-03-13T09:11:12;1.93;;;0.90;;
10653;SDS011;5375;51.250;6.776;2023-03-13T09:13:41;1.47;;;0.57;;
10653;SDS011;5375;51.250;6.776;2023-03-13T09:16:12;0.93;;;0.60;;
10653;SDS011;5375;51.250;6.776;2023-03-13T09:18:49;0.80;;;0.50;;
10653;SDS011;5375;51.250;6.776;2023-03-13T09:21:17;1.93;;;0.50;;
10653;SDS011;5375;51.250;6.776;2023-03-13T09:23:47;0.67;;;0.60;;
10653;SDS011;5375;51.250;6.776;2023-03-13T09:26:13;1.77;;;0.90;;
10653;SDS011;5375;51.250;6.776;2023-03-13T09:28:40;1.63;;;0.60;;
10653;SDS011;5375;51.250;6.776;2023-03-13T09:31:28;1.03;;;0.60;;
10653;SDS011;5375;51.250;6.776;2023-03-13T09:33:54;1.80;;;0.80;;
10653;SDS011;5375;51.250;6.776;2023-03-13T09:36:20;0.90;;;0.60;;
10653;SDS011;5375;51.250;6.776;2023-03-13T09:38:47;1.93;;;0.67;;
10653;SDS011;5375;51.250;6.776;2023-03-13T09:44:28;1.03;;;0.70;;
10653;SDS011;5375;51.250;6.776;2023-03-13T09:47:11;1.10;;;0.60;;
10653;SDS011;5375;51.250;6.776;2023-03-13T09:49:40;1.30;;;0.70;;
10653;SDS011;5375;51.250;6.776;2023-03-13T09:52:29;1.20;;;0.60;;
10653;SDS011;5375;51.250;6.776;2023-03-13T09:55:00;2.33;;;0.63;;
10653;SDS011;5375;51.250;6.776;2023-03-13T09:57:54;0.75;;;0.50;;
10653;SDS011;5375;51.250;6.776;2023-03-13T10:00:37;0.90;;;0.50;;
10653;SDS011;5375;51.250;6.776;2023-03-13T10:05:37;1.13;;;0.57;;
10653;SDS011;5375;51.250;6.776;2023-03-13T10:10:46;1.20;;;0.70;;
10653;SDS011;5375;51.250;6.776;2023-03-13T10:13:23;0.70;;;0.60;;
10653;SDS011;5375;51.250;6.776;2023-03-13T10:16:20;1.07;;;0.70;;
10653;SDS011;5375;51.250;6.776;2023-03-13T10:18:52;1.00;;;0.60;;
10653;SDS011;5375;51.250;6.776;2023-03-13T10:21:21;0.67;;;0.57;;
10653;SDS011;5375;51.250;6.776;2023-03-13T10:26:27;0.90;;;0.50;;
10653;SDS011;5375;51.250;6.776;2023-03-13T10:28:56;1.27;;;0.50;;
10653;SDS011;5375;51.250;6.776;2023-03-13T10:31:37;0.90;;;0.60;;
10653;SDS011;5375;51.250;6.776;2023-03-13T10:34:10;1.43;;;0.70;;
10653;SDS011;5375;51.250;6.776;2023-03-13T10:36:41;1.10;;;0.60;;
10653;SDS011;5375;51.250;6.776;2023-03-13T10:39:13;0.70;;;0.50;;
10653;SDS011;5375;51.250;6.776;2023-03-13T10:41:43;1.00;;;0.60;;
10653;SDS011;5375;51.250;6.776;2023-03-13T10:44:20;1.13;;;0.70;;
10653;SDS011;5375;51.250;6.776;2023-03-13T10:46:47;1.00;;;0.80;;
10653;SDS011;5375;51.250;6.776;2023-03-13T10:49:16;1.53;;;0.60;;
10653;SDS011;5375;51.250;6.776;2023-03-13T10:51:45;1.10;;;0.70;;
10653;SDS011;5375;51.250;6.776;2023-03-13T10:54:21;1.30;;;0.70;;
10653;SDS011;5375;51.250;6.776;2023-03-13T10:56:50;1.40;;;0.70;;
10653;SDS011;5375;51.250;6.776;2023-03-13T10:59:18;2.17;;;0.70;;
10653;SDS011;5375;51.250;6.776;2023-03-13T11:01:47;1.80;;;0.80;;
10653;SDS011;5375;51.250;6.776;2023-03-13T11:04:27;1.57;;;0.80;;
10653;SDS011;5375;51.250;6.776;2023-03-13T11:07:03;3.80;;;0.80;;
10653;SDS011;5375;51.250;6.776;2023-03-13T11:09:40;2.57;;;0.83;;
10653;SDS011;5375;51.250;6.776;2023-03-13T11:12:08;0.97;;;0.73;;
10653;SDS011;5375;51.250;6.776;2023-03-13T11:14:44;1.00;;;0.60;;
10653;SDS011;5375;51.250;6.776;2023-03-13T11:19:53;1.40;;;0.93;;
10653;SDS011;5375;51.250;6.776;2023-03-13T11:47:02;1.43;;;0.63;;
10653;SDS011;5375;51.250;6.776;2023-03-13T11:57:55;1.33;;;0.70;;
10653;SDS011;5375;51.250;6.776;2023-03-13T12:00:32;1.07;;;0.60;;
10653;SDS011;5375;51.250;6.776;2023-03-13T12:06:13;1.13;;;0.70;;
10653;SDS011;5375;51.250;6.776;2023-03-13T12:08:54;1.07;;;0.50;;
10653;SDS011;5375;51.250;6.776;2023-03-13T12:11:28;0.83;;;0.47;;
10653;SDS011;5375;51.250;6.776;2023-03-13T12:17:32;2.77;;;0.90;;
10653;SDS011;5375;51.250;6.776;2023-03-13T12:20:07;1.43;;;0.70;;
10653;SDS011;5375;51.250;6.776;2023-03-13T12:25:26;1.50;;;0.50;;
10653;SDS011;5375;51.250;6.776;2023-03-13T12:30:54;2.10;;;0.90;;
10653;SDS011;5375;51.250;6.776;2023-03-13T12:36:05;0.83;;;0.70;;
10653;SDS011;5375;51.250;6.776;2023-03-13T12:38:55;2.03;;;0.70;;
10653;SDS011;5375;51.250;6.776;2023-03-13T12:41:53;1.07;;;0.67;;
10653;SDS011;5375;51.250;6.776;2023-03-13T12:44:40;2.53;;;0.80;;
10653;SDS011;5375;51.250;6.776;2023-03-13T12:53:04;3.80;;;0.70;;
10653;SDS011;5375;51.250;6.776;2023-03-13T12:58:10;1.20;;;0.87;;
10653;SDS011;5375;51.250;6.776;2023-03-13T13:00:46;2.70;;;0.60;;
10653;SDS011;5375;51.250;6.776;2023-03-13T13:06:14;1.77;;;0.73;;
10653;SDS011;5375;51.250;6.776;2023-03-13T13:08:48;1.57;;;0.70;;
10653;SDS011;5375;51.250;6.776;2023-03-13T13:11:37;1.23;;;0.70;;
10653;SDS011;5375;51.250;6.776;2023-03-13T13:16:41;1.47;;;0.80;;
10653;SDS011;5375;51.250;6.776;2023-03-13T13:24:52;1.07;;;0.80;;
10653;SDS011;5375;51.250;6.776;2023-03-13T13:27:27;2.27;;;0.70;;
10653;SDS011;5375;51.250;6.776;2023-03-13T13:29:55;11.57;;;0.88;;
10653;SDS011;5375;51.250;6.776;2023-03-13T13:32:39;1.47;;;1.00;;
10653;SDS011;5375;51.250;6.776;2023-03-13T13:37:46;0.73;;;0.60;;
10653;SDS011;5375;51.250;6.776;2023-03-13T13:48:14;2.30;;;0.60;;
10653;SDS011;5375;51.250;6.776;2023-03-13T13:53:54;0.97;;;0.60;;
10653;SDS011;5375;51.250;6.776;2023-03-13T14:01:24;1.77;;;0.50;;
10653;SDS011;5375;51.250;6.776;2023-03-13T14:03:50;1.10;;;0.60;;
10653;SDS011;5375;51.250;6.776;2023-03-13T14:06:22;1.13;;;0.70;;
10653;SDS011;5375;51.250;6.776;2023-03-13T14:08:55;0.63;;;0.60;;
10653;SDS011;5375;51.250;6.776;2023-03-13T14:11:34;0.90;;;0.70;;
10653;SDS011;5375;51.250;6.776;2023-03-13T14:14:15;1.00;;;0.50;;
10653;SDS011;5375;51.250;6.776;2023-03-13T14:16:45;0.90;;;0.60;;
10653;SDS011;5375;51.250;6.776;2023-03-13T14:19:28;0.67;;;0.57;;
10653;SDS011;5375;51.250;6.776;2023-03-13T14:21:58;1.03;;;0.40;;
10653;SDS011;5375;51.250;6.776;2023-03-13T14:24:25;0.70;;;0.60;;
10653;SDS011;5375;51.250;6.776;2023-03-13T14:26:51;1.37;;;0.57;;
10653;SDS011;5375;51.250;6.776;2023-03-13T14:29:17;1.00;;;0.70;;
10653;SDS011;5375;51.250;6.776;2023-03-13T14:31:50;1.90;;;0.60;;
10653;SDS011;5375;51.250;6.776;2023-03-13T14:34:20;0.90;;;0.60;;
10653;SDS011;5375;51.250;6.776;2023-03-13T14:36:50;1.33;;;0.60;;
10653;SDS011;5375;51.250;6.776;2023-03-13T14:39:21;0.60;;;0.47;;
10653;SDS011;5375;51.250;6.776;2023-03-13T14:42:05;0.70;;;0.60;;
10653;SDS011;5375;51.250;6.776;2023-03-13T14:44:35;1.17;;;0.60;;
10653;SDS011;5375;51.250;6.776;2023-03-13T14:47:03;2.10;;;0.60;;
10653;SDS011;5375;51.250;6.776;2023-03-13T14:49:31;0.67;;;0.50;;
10653;SDS011;5375;51.250;6.776;2023-03-13T14:54:34;1.07;;;0.70;;
10653;SDS011;5375;51.250;6.776;2023-03-13T14:59:33;3.90;;;0.50;;
10653;SDS011;5375;51.250;6.776;2023-03-13T15:02:11;0.82;;;0.50;;
10653;SDS011;5375;51.250;6.776;2023-03-13T15:07:23;1.13;;;0.77;;
10653;SDS011;5375;51.250;6.776;2023-03-13T15:09:51;1.50;;;0.70;;
10653;SDS011;5375;51.250;6.776;2023-03-13T15:12:21;1.43;;;0.50;;
10653;SDS011;5375;51.250;6.776;2023-03-13T15:14:48;4.40;;;0.60;;
10653;SDS011;5375;51.250;6.776;2023-03-13T15:17:17;1.30;;;0.70;;
10653;SDS011;5375;51.250;6.776;2023-03-13T15:19:54;3.03;;;0.50;;
10653;SDS011;5375;51.250;6.776;2023-03-13T15:22:23;1.20;;;0.60;;
10653;SDS011;5375;51.250;6.776;2023-03-13T15:24:56;0.63;;;0.50;;
10653;SDS011;5375;51.250;6.776;2023-03-13T15:27:23;1.03;;;0.60;;
10653;SDS011;5375;51.250;6.776;2023-03-13T15:29:50;1.30;;;0.80;;
10653;SDS011;5375;51.250;6.776;2023-03-13T15:32:24;0.83;;;0.50;;
10653;SDS011;5375;51.250;6.776;2023-03-13T15:34:52;2.07;;;0.50;;
10653;SDS011;5375;51.250;6.776;2023-03-13T15:37:22;2.80;;;0.60;;
10653;SDS011;5375;51.250;6.776;2023-03-13T15:39:51;1.00;;;0.50;;
10653;SDS011;5375;51.250;6.776;2023-03-13T15:42:17;0.70;;;0.57;;
10653;SDS011;5375;51.250;6.776;2023-03-13T15:44:43;1.33;;;0.70;;
10653;SDS011;5375;51.250;6.776;2023-03-13T15:47:09;0.50;;;0.50;;
10653;SDS011;5375;51.250;6.776;2023-03-13T15:49:38;0.90;;;0.50;;
10653;SDS011;5375;51.250;6.776;2023-03-13T15:52:08;1.67;;;0.70;;
10653;SDS011;5375;51.250;6.776;2023-03-13T15:54:46;2.33;;;0.63;;
10653;SDS011;5375;51.250;6.776;2023-03-13T15:57:13;0.93;;;0.80;;
10653;SDS011;5375;51.250;6.776;2023-03-13T15:59:40;0.80;;;0.60;;
10653;SDS011;5375;51.250;6.776;2023-03-13T16:02:14;0.68;;;0.50;;
10653;SDS011;5375;51.250;6.776;2023-03-13T16:04:42;1.00;;;0.60;;
10653;SDS011;5375;51.250;6.776;2023-03-13T16:07:12;1.93;;;0.90;;
10653;SDS011;5375;51.250;6.776;2023-03-13T16:09:39;0.83;;;0.50;;
10653;SDS011;5375;51.250;6.776;2023-03-13T16:12:05;0.90;;;0.70;;
10653;SDS011;5375;51.250;6.776;2023-03-13T16:14:31;1.87;;;0.47;;
10653;SDS011;5375;51.250;6.776;2023-03-13T16:16:57;0.70;;;0.50;;
10653;SDS011;5375;51.250;6.776;2023-03-13T16:19:23;1.23;;;0.60;;
10653;SDS011;5375;51.250;6.776;2023-03-13T16:21:48;1.63;;;0.63;;
10653;SDS011;5375;51.250;6.776;2023-03-13T16:24:16;2.20;;;0.60;;
10653;SDS011;5375;51.250;6.776;2023-03-13T16:26:43;1.83;;;0.70;;
10653;SDS011;5375;51.250;6.776;2023-03-13T16:29:12;0.60;;;0.60;;
10653;SDS011;5375;51.250;6.776;2023-03-13T16:31:39;1.10;;;0.60;;
10653;SDS011;5375;51.250;6.776;2023-03-13T16:34:06;0.50;;;0.50;;
10653;SDS011;5375;51.250;6.776;2023-03-13T16:36:33;0.60;;;0.50;;
10653;SDS011;5375;51.250;6.776;2023-03-13T16:39:00;1.23;;;0.50;;
10653;SDS011;5375;51.250;6.776;2023-03-13T16:41:27;0.90;;;0.60;;
10653;SDS011;5375;51.250;6.776;2023-03-13T16:43:53;0.60;;;0.50;;
10653;SDS011;5375;51.250;6.776;2023-03-13T16:46:24;0.90;;;0.60;;
10653;SDS011;5375;51.250;6.776;2023-03-13T16:49:03;0.93;;;0.57;;
10653;SDS011;5375;51.250;6.776;2023-03-13T16:51:30;0.90;;;0.50;;
10653;SDS011;5375;51.250;6.776;2023-03-13T16:53:56;0.93;;;0.63;;
10653;SDS011;5375;51.250;6.776;2023-03-13T16:56:39;0.90;;;0.53;;
10653;SDS011;5375;51.250;6.776;2023-03-13T16:59:10;1.50;;;0.57;;
10653;SDS011;5375;51.250;6.776;2023-03-13T17:01:40;0.40;;;0.40;;
10653;SDS011;5375;51.250;6.776;2023-03-13T17:04:06;0.97;;;0.63;;
10653;SDS011;5375;51.250;6.776;2023-03-13T17:06:33;0.60;;;0.60;;
10653;SDS011;5375;51.250;6.776;2023-03-13T17:09:04;1.10;;;0.60;;
10653;SDS011;5375;51.250;6.776;2023-03-13T17:11:35;1.63;;;0.60;;